Time;durP1;ratioP1;P1;durP2;ratioP2;P2;SDS_P1;SDS_P2;PMS_P1;PMS_P2;Temp;Humidity;BMP_temperature;BMP_pressure;BME280_temperature;BME280_humidity;BME280_pressure;Samples;Min_cycle;Max_cycle;Signal;HPM_P1;HPM_P2
2022/08/07 00:00:03;;;;;;;7.03;4.43;;;;;;;12.92;93.09;102420.75;173325;28;1014;-67
2022/08/07 00:00:10;;;;;;;7.24;4.34;;;;;;;12.92;92.67;102425.13;173324;28;1045;-67
2022/08/07 00:00:15;;;;;;;7.20;4.40;;;;;;;12.92;92.70;102425.13;173282;28;1400;-67
2022/08/07 00:00:21;;;;;;;6.63;4.37;;;;;;;12.92;92.99;102425.13;172585;28;920;-68
2022/08/07 00:00:27;;;;;;;6.32;4.40;;;;;;;12.92;92.79;102426.00;172624;28;1215;-67
2022/08/07 00:00:33;;;;;;;6.10;4.50;;;;;;;12.93;92.91;102419.00;172586;28;926;-67
2022/08/07 00:00:38;;;;;;;6.63;4.53;;;;;;;12.94;92.84;102428.56;172576;28;1069;-67
2022/08/07 00:00:43;;;;;;;7.13;4.67;;;;;;;12.94;92.51;102423.34;172645;28;1092;-66
2022/08/07 00:00:49;;;;;;;6.60;4.60;;;;;;;12.93;93.05;102422.47;172673;28;848;-67
2022/08/07 00:00:54;;;;;;;6.72;4.60;;;;;;;12.95;92.88;102422.44;172665;28;860;-67
2022/08/07 00:00:59;;;;;;;6.77;4.50;;;;;;;12.94;92.37;102423.34;172667;28;875;-67
2022/08/07 00:01:05;;;;;;;5.70;4.50;;;;;;;12.94;92.90;102424.22;172692;28;959;-67
2022/08/07 00:01:12;;;;;;;5.25;4.47;;;;;;;12.93;92.84;102422.47;172583;28;1055;-67
2022/08/07 00:01:18;;;;;;;4.94;4.36;;;;;;;12.92;93.41;102425.13;172632;28;1159;-67
2022/08/07 00:01:23;;;;;;;4.93;4.30;;;;;;;12.86;93.87;102426.16;172651;28;966;-67
2022/08/07 00:01:29;;;;;;;5.10;4.30;;;;;;;12.83;94.33;102427.09;172664;28;1155;-67
2022/08/07 00:01:35;;;;;;;5.22;4.40;;;;;;;12.79;94.21;102420.22;172676;28;872;-67
2022/08/07 00:01:40;;;;;;;5.75;4.43;;;;;;;12.75;94.48;102424.69;172558;28;1058;-67
2022/08/07 00:01:46;;;;;;;6.03;4.40;;;;;;;12.72;95.26;102423.91;172695;28;927;-67
2022/08/07 00:01:51;;;;;;;5.82;4.30;;;;;;;12.68;95.07;102427.50;172642;28;947;-67
2022/08/07 00:01:57;;;;;;;6.10;4.33;;;;;;;12.64;94.88;102421.50;172657;28;859;-67
2022/08/07 00:02:03;;;;;;;5.75;4.25;;;;;;;12.61;95.29;102427.69;172648;28;975;-67
2022/08/07 00:02:08;;;;;;;5.05;4.20;;;;;;;12.60;95.77;102425.94;172630;28;1090;-67
2022/08/07 00:02:13;;;;;;;4.73;4.20;;;;;;;12.59;95.87;102429.47;171880;28;1439;-67
2022/08/07 00:02:19;;;;;;;4.93;4.27;;;;;;;12.59;95.89;102431.25;172281;28;1029;-67
2022/08/07 00:02:24;;;;;;;5.28;4.30;;;;;;;12.59;95.97;102424.22;172637;28;1001;-67
2022/08/07 00:02:29;;;;;;;5.30;4.30;;;;;;;12.60;95.61;102423.31;172660;28;1072;-67
2022/08/07 00:02:34;;;;;;;5.20;4.30;;;;;;;12.60;95.57;102420.69;172472;28;831;-67
2022/08/07 00:02:40;;;;;;;5.20;4.30;;;;;;;12.60;96.00;102425.94;171938;28;1059;-67
2022/08/07 00:02:45;;;;;;;5.88;4.30;;;;;;;12.61;95.40;102427.69;171981;28;1049;-67
2022/08/07 00:02:51;;;;;;;5.53;4.30;;;;;;;12.64;95.92;102425.84;171956;28;934;-67
2022/08/07 00:02:56;;;;;;;5.22;4.35;;;;;;;12.66;95.03;102424.06;171984;28;867;-67
2022/08/07 00:03:01;;;;;;;6.13;4.40;;;;;;;12.69;94.60;102424.84;171971;28;931;-67
2022/08/07 00:03:08;;;;;;;7.00;4.45;;;;;;;12.71;94.71;102424.81;171956;28;962;-67
2022/08/07 00:03:13;;;;;;;6.97;4.65;;;;;;;12.72;94.35;102421.28;171973;28;934;-67
2022/08/07 00:03:19;;;;;;;7.23;4.70;;;;;;;12.75;94.31;102422.06;172591;28;1661;-67
2022/08/07 00:03:25;;;;;;;7.68;4.82;;;;;;;12.77;94.54;102422.03;172548;28;1056;-67
2022/08/07 00:03:30;;;;;;;7.30;4.82;;;;;;;12.79;93.69;102429.84;171884;28;923;-67
2022/08/07 00:03:36;;;;;;;6.93;4.87;;;;;;;12.80;93.96;102427.16;171956;28;919;-67
2022/08/07 00:03:41;;;;;;;6.93;4.93;;;;;;;12.81;94.17;102422.81;171974;28;1093;-67
2022/08/07 00:03:47;;;;;;;6.87;4.90;;;;;;;12.83;93.61;102426.25;172005;28;1081;-67
2022/08/07 00:03:52;;;;;;;7.90;4.93;;;;;;;12.84;93.40;102425.34;171987;28;935;-67
2022/08/07 00:03:58;;;;;;;8.23;4.80;;;;;;;12.84;93.60;102420.97;171882;28;1438;-67
2022/08/07 00:04:05;;;;;;;7.80;4.72;;;;;;;12.86;92.97;102429.63;171961;28;1123;-67
2022/08/07 00:04:11;;;;;;;7.90;4.67;;;;;;;12.88;92.89;102420.00;171825;28;946;-67
2022/08/07 00:04:16;;;;;;;7.63;4.50;;;;;;;12.89;93.38;102420.84;170601;29;1228;-67
2022/08/07 00:04:22;;;;;;;6.43;4.40;;;;;;;12.90;93.06;102421.69;171214;28;857;-67
2022/08/07 00:04:27;;;;;;;5.93;4.40;;;;;;;12.91;92.82;102423.41;171291;28;1542;-67
2022/08/07 00:04:32;;;;;;;5.63;4.37;;;;;;;12.91;93.01;102419.03;171226;28;1421;-67
2022/08/07 00:04:37;;;;;;;5.13;4.20;;;;;;;12.91;92.74;102421.66;171248;28;1081;-67
2022/08/07 00:04:43;;;;;;;5.03;4.28;;;;;;;12.92;92.92;102419.88;171249;28;1070;-67
2022/08/07 00:04:48;;;;;;;4.83;4.33;;;;;;;12.92;92.57;102422.50;171297;28;840;-66
2022/08/07 00:04:54;;;;;;;4.68;4.28;;;;;;;12.93;93.07;102421.63;171315;28;931;-67
2022/08/07 00:04:59;;;;;;;4.70;4.20;;;;;;;12.93;92.59;102421.63;171282;28;1021;-67
2022/08/07 00:05:05;;;;;;;4.80;4.30;;;;;;;12.94;92.79;102418.09;171312;28;852;-67
2022/08/07 00:05:10;;;;;;;4.88;4.30;;;;;;;12.94;92.31;102424.22;171298;28;869;-67
2022/08/07 00:05:15;;;;;;;5.03;4.30;;;;;;;12.95;92.58;102425.03;171339;28;1081;-67
2022/08/07 00:05:23;;;;;;;5.72;4.32;;;;;;;12.95;92.80;102419.81;171897;28;1442;-67
2022/08/07 00:05:28;;;;;;;6.08;4.44;;;;;;;12.95;92.86;102420.69;172240;28;907;-67
2022/08/07 00:05:34;;;;;;;6.03;4.40;;;;;;;12.95;92.58;102420.69;172527;28;1051;-67
2022/08/07 00:05:39;;;;;;;6.03;4.50;;;;;;;12.96;92.42;102416.28;172660;28;979;-67
2022/08/07 00:05:45;;;;;;;5.93;4.57;;;;;;;12.97;92.93;102423.25;172583;28;1492;-67
2022/08/07 00:05:52;;;;;;;5.65;4.68;;;;;;;12.97;92.75;102418.03;172704;28;974;-66
2022/08/07 00:05:57;;;;;;;5.78;4.78;;;;;;;12.96;93.00;102422.38;172662;28;922;-67
2022/08/07 00:06:03;;;;;;;6.37;4.80;;;;;;;12.97;92.72;102424.09;172573;28;914;-67
2022/08/07 00:06:09;;;;;;;6.67;4.90;;;;;;;12.98;92.68;102419.72;172565;28;2509;-67
2022/08/07 00:06:15;;;;;;;6.40;4.88;;;;;;;12.98;92.86;102422.34;172659;28;851;-67
2022/08/07 00:06:20;;;;;;;6.10;4.80;;;;;;;12.97;92.85;102420.63;172394;28;974;-67
2022/08/07 00:06:25;;;;;;;6.00;4.70;;;;;;;12.98;92.13;102419.72;171996;28;827;-68
2022/08/07 00:06:31;;;;;;;6.75;4.72;;;;;;;12.98;92.75;102419.72;172296;28;879;-66
2022/08/07 00:06:38;;;;;;;6.57;4.70;;;;;;;12.98;92.32;102415.34;172656;28;1080;-67
2022/08/07 00:06:43;;;;;;;6.83;4.70;;;;;;;12.98;92.36;102424.97;172639;28;1068;-67
2022/08/07 00:06:49;;;;;;;6.82;4.70;;;;;;;12.96;92.31;102421.50;172640;28;863;-67
2022/08/07 00:06:54;;;;;;;6.70;4.73;;;;;;;12.97;92.44;102423.25;172640;28;866;-67
2022/08/07 00:06:59;;;;;;;5.13;4.60;;;;;;;12.97;92.72;102425.88;172647;28;1375;-67
2022/08/07 00:07:05;;;;;;;5.10;4.60;;;;;;;12.96;92.53;102422.38;172655;28;985;-67
2022/08/07 00:07:10;;;;;;;5.10;4.60;;;;;;;12.98;92.31;102424.97;172628;28;1029;-67
2022/08/07 00:07:17;;;;;;;4.97;4.55;;;;;;;12.97;92.62;102418.84;172682;28;870;-67
2022/08/07 00:07:23;;;;;;;4.96;4.48;;;;;;;12.97;92.56;102418.03;171965;28;989;-67
2022/08/07 00:07:28;;;;;;;5.00;4.50;;;;;;;12.98;92.47;102424.97;171920;28;1010;-67
2022/08/07 00:07:33;;;;;;;5.37;4.50;;;;;;;12.97;92.33;102418.03;171969;28;1223;-67
2022/08/07 00:07:39;;;;;;;5.30;4.50;;;;;;;12.97;92.62;102415.41;171999;28;1026;-67
2022/08/07 00:07:44;;;;;;;6.07;4.60;;;;;;;12.97;92.27;102418.03;172407;28;751;-67
2022/08/07 00:07:51;;;;;;;6.28;4.60;;;;;;;12.98;92.89;102417.09;172670;28;1108;-67
2022/08/07 00:07:57;;;;;;;6.02;4.76;;;;;;;12.97;92.47;102423.25;172632;28;1101;-67
2022/08/07 00:08:04;;;;;;;6.47;4.90;;;;;;;12.96;92.58;102418.91;172618;28;1365;-67
2022/08/07 00:08:10;;;;;;;7.00;5.13;;;;;;;12.97;92.32;102420.63;173242;28;1054;-67
2022/08/07 00:08:15;;;;;;;6.37;5.13;;;;;;;12.97;92.57;102421.47;173347;28;859;-67
2022/08/07 00:08:24;;;;;;;6.17;5.10;;;;;;;12.98;92.69;102414.50;173358;28;1092;-67
2022/08/07 00:08:29;;;;;;;6.33;4.96;;;;;;;12.97;92.80;102418.03;172503;28;1441;-67
2022/08/07 00:08:35;;;;;;;5.78;4.88;;;;;;;12.97;92.67;102424.09;171905;28;915;-67
2022/08/07 00:08:41;;;;;;;5.68;4.57;;;;;;;12.97;92.42;102418.03;171877;28;1060;-70
2022/08/07 00:08:46;;;;;;;5.77;4.47;;;;;;;12.95;92.98;102420.69;171923;28;959;-68
2022/08/07 00:08:52;;;;;;;5.93;4.65;;;;;;;12.97;92.80;102423.25;171961;28;1042;-67
2022/08/07 00:08:57;;;;;;;5.70;4.60;;;;;;;12.97;92.21;102424.09;171964;28;1038;-67
2022/08/07 00:09:03;;;;;;;5.75;4.60;;;;;;;12.98;92.76;102419.72;171977;28;907;-68
2022/08/07 00:09:09;;;;;;;5.28;4.60;;;;;;;12.98;92.62;102424.97;171238;28;1201;-67
2022/08/07 00:09:14;;;;;;;5.47;4.63;;;;;;;12.97;92.48;102421.47;171299;28;1026;-67
2022/08/07 00:09:20;;;;;;;5.73;4.63;;;;;;;12.97;92.75;102423.25;171346;28;1119;-68
2022/08/07 00:09:26;;;;;;;5.64;4.46;;;;;;;12.97;92.32;102418.03;171304;28;1344;-67
2022/08/07 00:09:31;;;;;;;5.40;4.47;;;;;;;12.96;92.90;102422.38;171315;28;1046;-67
2022/08/07 00:09:36;;;;;;;5.53;4.53;;;;;;;12.97;92.50;102412.78;171297;28;1042;-67
2022/08/07 00:09:42;;;;;;;5.97;4.68;;;;;;;12.96;92.52;102418.91;171223;28;931;-67
2022/08/07 00:09:47;;;;;;;5.57;4.60;;;;;;;12.95;92.58;102419.81;171338;28;872;-67
2022/08/07 00:09:52;;;;;;;5.35;4.60;;;;;;;12.94;92.99;102424.22;171872;28;1017;-68
2022/08/07 00:09:58;;;;;;;5.50;4.70;;;;;;;12.93;92.92;102419.84;171971;28;1089;-67
2022/08/07 00:10:04;;;;;;;5.27;4.73;;;;;;;12.93;92.64;102424.25;171974;28;1046;-67
2022/08/07 00:10:10;;;;;;;5.13;4.63;;;;;;;12.87;93.24;102418.25;171992;28;1136;-68
2022/08/07 00:10:15;;;;;;;5.10;4.60;;;;;;;12.83;93.80;102414.00;171970;28;1042;-68
2022/08/07 00:10:24;;;;;;;5.10;4.60;;;;;;;12.79;94.42;102420.22;172010;28;927;-67
2022/08/07 00:10:30;;;;;;;5.20;4.60;;;;;;;12.73;94.82;102420.41;171948;28;1057;-68
2022/08/07 00:10:37;;;;;;;5.15;4.45;;;;;;;12.72;94.50;102418.66;171956;28;1038;-67
2022/08/07 00:10:42;;;;;;;5.40;4.42;;;;;;;12.72;94.38;102423.91;171936;28;986;-67
2022/08/07 00:10:50;;;;;;;5.60;4.50;;;;;;;12.73;94.44;102423.03;172672;28;942;-67
2022/08/07 00:10:56;;;;;;;5.33;4.50;;;;;;;12.75;94.31;102418.59;172595;28;970;-68
2022/08/07 00:11:04;;;;;;;5.23;4.50;;;;;;;12.76;94.32;102420.28;172631;28;1259;-68
2022/08/07 00:11:09;;;;;;;5.50;4.48;;;;;;;12.77;94.04;102424.66;172650;28;978;-68
2022/08/07 00:11:15;;;;;;;5.97;4.60;;;;;;;12.77;94.13;102422.03;172634;28;1045;-68
2022/08/07 00:11:20;;;;;;;6.47;4.60;;;;;;;12.77;94.11;102418.53;172694;28;1085;-67
2022/08/07 00:11:25;;;;;;;6.43;4.53;;;;;;;12.73;94.52;102421.25;172630;28;1601;-68
2022/08/07 00:11:31;;;;;;;6.17;4.53;;;;;;;12.69;94.29;102414.38;172651;28;1160;-67
2022/08/07 00:11:36;;;;;;;6.03;4.57;;;;;;;12.66;94.61;102416.22;172626;28;1160;-68
2022/08/07 00:11:42;;;;;;;5.47;4.50;;;;;;;12.62;95.41;102418.91;173044;28;1350;-68
2022/08/07 00:11:47;;;;;;;4.90;4.40;;;;;;;12.59;95.48;102423.38;172600;28;1314;-68
2022/08/07 00:11:54;;;;;;;4.70;4.30;;;;;;;12.57;95.31;102420.81;172625;28;1045;-68
2022/08/07 00:11:59;;;;;;;4.60;4.20;;;;;;;12.54;95.95;102418.25;172655;28;981;-68
2022/08/07 00:12:05;;;;;;;4.67;4.20;;;;;;;12.52;96.01;102422.66;172562;28;890;-67
2022/08/07 00:12:10;;;;;;;4.82;4.20;;;;;;;12.52;95.91;102416.56;172659;28;1045;-67
2022/08/07 00:12:16;;;;;;;5.53;4.20;;;;;;;12.52;95.82;102417.41;172645;28;938;-67
2022/08/07 00:12:21;;;;;;;6.10;4.27;;;;;;;12.54;95.79;102420.88;172704;28;1219;-68
2022/08/07 00:12:26;;;;;;;6.43;4.40;;;;;;;12.54;95.51;102418.25;172645;28;899;-68
2022/08/07 00:12:32;;;;;;;6.83;4.40;;;;;;;12.52;96.17;102413.97;172635;28;1089;-68
2022/08/07 00:12:37;;;;;;;6.70;4.50;;;;;;;12.50;96.20;102419.22;172541;28;1368;-68
2022/08/07 00:12:43;;;;;;;6.43;4.60;;;;;;;12.48;96.61;102415.78;172656;28;970;-68
2022/08/07 00:12:49;;;;;;;5.60;4.57;;;;;;;12.46;96.56;102417.59;172698;28;860;-67
2022/08/07 00:12:54;;;;;;;5.47;4.57;;;;;;;12.46;96.72;102417.59;172574;28;1495;-67
2022/08/07 00:13:04;;;;;;;5.70;4.73;;;;;;;12.47;96.35;102414.06;172497;28;1154;-68
2022/08/07 00:13:10;;;;;;;5.49;4.75;;;;;;;12.48;96.89;102421.00;172632;28;1130;-68
2022/08/07 00:13:18;;;;;;;5.68;4.70;;;;;;;12.46;96.53;102414.97;172671;28;864;-67
2022/08/07 00:13:24;;;;;;;6.35;4.78;;;;;;;12.48;96.39;102418.38;172663;28;1070;-68
2022/08/07 00:13:30;;;;;;;6.45;4.63;;;;;;;12.48;96.56;102413.16;172650;28;990;-68
2022/08/07 00:13:36;;;;;;;6.50;4.63;;;;;;;12.48;96.31;102410.53;172656;28;1077;-68
2022/08/07 00:13:43;;;;;;;6.72;4.45;;;;;;;12.49;96.49;102422.75;172556;28;990;-68
2022/08/07 00:13:48;;;;;;;6.68;4.52;;;;;;;12.47;96.51;102419.31;173283;28;910;-68
2022/08/07 00:13:54;;;;;;;6.20;4.50;;;;;;;12.47;96.82;102420.19;173373;28;873;-67
2022/08/07 00:13:59;;;;;;;6.00;4.50;;;;;;;12.44;97.06;102411.50;173361;28;911;-68
2022/08/07 00:14:05;;;;;;;6.03;4.60;;;;;;;12.43;96.83;102413.28;173329;28;1025;-67
2022/08/07 00:14:10;;;;;;;5.82;4.70;;;;;;;12.42;97.07;102419.41;173310;28;855;-67
2022/08/07 00:14:15;;;;;;;5.20;4.63;;;;;;;12.42;97.28;102415.94;173351;28;891;-68
2022/08/07 00:14:21;;;;;;;5.53;4.70;;;;;;;12.40;96.77;102413.38;173357;28;1093;-68
2022/08/07 00:14:29;;;;;;;5.80;4.50;;;;;;;12.38;97.32;102414.31;173227;28;934;-68
2022/08/07 00:14:34;;;;;;;5.35;4.47;;;;;;;12.36;97.14;102412.56;173345;28;969;-68
2022/08/07 00:14:39;;;;;;;5.30;4.40;;;;;;;12.34;96.94;102409.13;173313;28;871;-68
2022/08/07 00:14:45;;;;;;;5.30;4.35;;;;;;;12.37;97.32;102413.44;173302;28;946;-69
2022/08/07 00:14:50;;;;;;;5.67;4.23;;;;;;;12.34;97.20;102413.50;173351;28;922;-68
2022/08/07 00:14:57;;;;;;;5.50;4.30;;;;;;;12.34;97.15;102414.38;172659;28;848;-68
2022/08/07 00:15:02;;;;;;;6.00;4.30;;;;;;;12.33;97.90;102411.78;173303;28;1070;-68
2022/08/07 00:15:09;;;;;;;6.20;4.30;;;;;;;12.31;97.52;102414.44;173289;28;1100;-68
2022/08/07 00:15:15;;;;;;;6.97;4.30;;;;;;;12.27;97.40;102415.41;173305;28;1081;-68
2022/08/07 00:15:20;;;;;;;6.63;4.35;;;;;;;12.25;97.45;102418.97;173407;28;892;-68
2022/08/07 00:15:26;;;;;;;6.57;4.40;;;;;;;12.23;98.28;102413.78;173331;28;859;-68
2022/08/07 00:15:32;;;;;;;6.45;4.40;;;;;;;12.21;98.21;102412.94;173183;28;1246;-68
2022/08/07 00:15:37;;;;;;;6.40;4.30;;;;;;;12.20;98.60;102416.47;173356;28;899;-67
2022/08/07 00:15:44;;;;;;;6.43;4.40;;;;;;;12.19;98.24;102409.50;173313;28;1104;-68
2022/08/07 00:15:50;;;;;;;6.02;4.40;;;;;;;12.22;97.98;102415.53;173343;28;935;-68
2022/08/07 00:15:56;;;;;;;6.18;4.32;;;;;;;12.26;97.53;102418.94;173332;28;1017;-67
2022/08/07 00:16:04;;;;;;;6.73;4.30;;;;;;;12.31;97.43;102409.22;172545;28;1443;-67
2022/08/07 00:16:09;;;;;;;7.12;4.33;;;;;;;12.34;97.59;102414.38;172512;28;1488;-67
2022/08/07 00:16:15;;;;;;;7.25;4.32;;;;;;;12.38;97.10;102411.69;172617;28;1095;-68
2022/08/07 00:16:20;;;;;;;8.40;4.47;;;;;;;12.41;96.79;102415.06;172657;28;915;-68
2022/08/07 00:16:26;;;;;;;7.90;4.60;;;;;;;12.45;96.43;102415.84;172677;28;895;-67
2022/08/07 00:16:31;;;;;;;7.87;4.67;;;;;;;12.48;96.14;102410.53;172675;28;848;-67
2022/08/07 00:16:36;;;;;;;7.03;4.70;;;;;;;12.49;96.48;102420.13;172648;28;1217;-68
2022/08/07 00:16:42;;;;;;;6.82;4.75;;;;;;;12.49;95.85;102417.50;172643;28;1030;-68
2022/08/07 00:16:47;;;;;;;6.57;4.90;;;;;;;12.50;96.17;102416.59;172602;28;1470;-68
2022/08/07 00:16:52;;;;;;;5.90;4.73;;;;;;;12.51;95.90;102418.31;172643;28;942;-68
2022/08/07 00:17:00;;;;;;;5.63;4.60;;;;;;;12.52;95.75;102417.41;172563;28;926;-68
2022/08/07 00:17:06;;;;;;;5.40;4.60;;;;;;;12.54;95.80;102415.63;172640;28;962;-68
2022/08/07 00:17:11;;;;;;;5.70;4.63;;;;;;;12.54;95.34;102420.88;172569;28;898;-68
2022/08/07 00:17:17;;;;;;;5.20;4.50;;;;;;;12.54;95.52;102412.16;172583;28;899;-67
2022/08/07 00:17:22;;;;;;;5.27;4.50;;;;;;;12.54;95.42;102415.63;172690;28;1387;-68
2022/08/07 00:17:28;;;;;;;5.38;4.60;;;;;;;12.54;95.92;102414.75;172647;28;958;-67
2022/08/07 00:17:33;;;;;;;5.37;4.67;;;;;;;12.53;95.35;102413.91;172618;28;982;-68
2022/08/07 00:17:38;;;;;;;5.87;4.60;;;;;;;12.52;96.12;102412.19;172652;28;836;-68
2022/08/07 00:17:44;;;;;;;6.13;4.47;;;;;;;12.52;95.58;102412.19;171923;28;1362;-68
2022/08/07 00:17:49;;;;;;;6.17;4.50;;;;;;;12.53;96.16;102413.06;171391;28;965;-68
2022/08/07 00:17:54;;;;;;;6.33;4.60;;;;;;;12.53;95.78;102410.44;171206;28;1903;-67
2022/08/07 00:18:00;;;;;;;6.50;4.60;;;;;;;12.50;96.57;102416.59;171515;28;942;-67
2022/08/07 00:18:07;;;;;;;6.87;4.60;;;;;;;12.46;96.47;102410.56;172630;28;966;-68
2022/08/07 00:18:19;;;;;;;6.17;4.83;;;;;;;12.43;97.41;102412.44;172657;28;1229;-68
2022/08/07 00:18:27;;;;;;;6.45;4.89;;;;;;;12.40;97.20;102415.09;172653;28;1222;-68
2022/08/07 00:18:33;;;;;;;5.53;4.70;;;;;;;12.39;97.52;102410.78;172661;28;1082;-68
2022/08/07 00:18:38;;;;;;;5.27;4.77;;;;;;;12.38;97.45;102409.06;172653;28;1077;-68
2022/08/07 00:18:44;;;;;;;5.20;4.70;;;;;;;12.39;97.79;102413.41;172643;28;966;-68
2022/08/07 00:18:49;;;;;;;5.17;4.70;;;;;;;12.36;97.96;102407.31;172702;28;856;-68
2022/08/07 00:18:55;;;;;;;5.30;4.80;;;;;;;12.35;97.46;102416.09;172640;28;907;-68
2022/08/07 00:19:00;;;;;;;5.73;4.80;;;;;;;12.35;97.61;102413.47;172640;28;1022;-68
2022/08/07 00:19:06;;;;;;;6.00;4.70;;;;;;;12.34;97.74;102414.38;172550;28;1603;-68
2022/08/07 00:19:11;;;;;;;5.97;4.63;;;;;;;12.34;97.89;102418.75;172649;28;836;-68
2022/08/07 00:19:16;;;;;;;6.47;4.60;;;;;;;12.32;98.34;102416.16;171803;28;2839;-68
2022/08/07 00:19:22;;;;;;;6.43;4.70;;;;;;;12.30;97.91;102415.34;171915;28;1465;-68
2022/08/07 00:19:27;;;;;;;6.23;4.63;;;;;;;12.29;98.37;102415.38;171861;28;749;-68
2022/08/07 00:19:33;;;;;;;5.72;4.72;;;;;;;12.29;98.60;102411.03;171959;28;1374;-67
2022/08/07 00:19:38;;;;;;;5.78;4.75;;;;;;;12.29;98.68;102408.41;172019;28;1635;-67
2022/08/07 00:19:45;;;;;;;5.93;4.70;;;;;;;12.30;98.58;102417.97;172087;28;1104;-67
2022/08/07 00:19:50;;;;;;;5.25;4.55;;;;;;;12.33;98.34;102412.66;172148;28;1006;-68
2022/08/07 00:19:56;;;;;;;5.35;4.47;;;;;;;12.35;97.86;102410.84;172116;28;1355;-68
2022/08/07 00:20:04;;;;;;;5.93;4.43;;;;;;;12.38;97.28;102415.16;170629;28;1413;-67
2022/08/07 00:20:10;;;;;;;6.46;4.40;;;;;;;12.40;97.27;102417.72;170767;29;1037;-67
2022/08/07 00:20:16;;;;;;;6.30;4.40;;;;;;;12.41;96.98;102415.06;170790;29;1205;-68
2022/08/07 00:20:22;;;;;;;6.40;4.55;;;;;;;12.41;97.28;102411.59;170834;29;899;-67
2022/08/07 00:20:27;;;;;;;6.53;4.65;;;;;;;12.41;97.02;102411.59;170750;29;1109;-68
2022/08/07 00:20:32;;;;;;;5.82;4.70;;;;;;;12.42;97.17;102410.72;170672;29;1081;-68
2022/08/07 00:20:38;;;;;;;5.80;4.77;;;;;;;12.42;97.21;102410.72;170777;29;1034;-67
2022/08/07 00:20:44;;;;;;;6.05;4.88;;;;;;;12.44;97.07;102414.13;170772;29;1292;-68
2022/08/07 00:20:50;;;;;;;5.80;4.83;;;;;;;12.44;97.44;102416.75;171373;28;1657;-67
2022/08/07 00:21:02;;;;;;;5.50;4.85;;;;;;;12.46;96.43;102415.81;171466;28;979;-67
2022/08/07 00:21:09;;;;;;;5.21;4.76;;;;;;;12.49;96.06;102414.91;171443;28;1217;-68
2022/08/07 00:21:14;;;;;;;5.03;4.57;;;;;;;12.49;95.94;102417.50;172072;28;2046;-67
2022/08/07 00:21:20;;;;;;;5.10;4.60;;;;;;;12.49;96.45;102418.34;172105;28;1062;-68
2022/08/07 00:21:25;;;;;;;5.30;4.57;;;;;;;12.52;96.12;102412.19;171775;28;915;-68
2022/08/07 00:21:31;;;;;;;5.80;4.70;;;;;;;12.52;95.78;102412.19;171648;28;916;-67
2022/08/07 00:21:36;;;;;;;5.67;4.80;;;;;;;12.55;95.63;102421.72;172299;28;1100;-68
2022/08/07 00:21:41;;;;;;;5.65;4.90;;;;;;;12.55;95.72;102417.34;172675;28;776;-68
2022/08/07 00:21:47;;;;;;;6.87;4.87;;;;;;;12.56;95.36;102408.56;172695;28;847;-68
2022/08/07 00:21:52;;;;;;;6.77;4.73;;;;;;;12.57;95.79;102412.94;172823;28;1033;-67
2022/08/07 00:21:58;;;;;;;6.43;4.68;;;;;;;12.58;95.53;102417.28;172700;28;903;-68
2022/08/07 00:22:03;;;;;;;6.70;4.53;;;;;;;12.58;95.12;102414.66;172793;28;860;-68
2022/08/07 00:22:09;;;;;;;6.53;4.47;;;;;;;12.59;95.54;102412.91;172786;28;1231;-68
2022/08/07 00:22:15;;;;;;;6.03;4.37;;;;;;;12.58;95.67;102417.28;172787;28;1096;-67
2022/08/07 00:22:21;;;;;;;5.52;4.36;;;;;;;12.59;95.05;102407.66;172016;28;1789;-68
2022/08/07 00:22:26;;;;;;;5.30;4.43;;;;;;;12.59;95.22;102416.38;172094;28;1010;-67
2022/08/07 00:22:32;;;;;;;5.30;4.60;;;;;;;12.59;95.36;102412.91;172068;28;931;-68
2022/08/07 00:22:37;;;;;;;6.07;4.70;;;;;;;12.59;95.27;102408.50;172095;28;915;-67
2022/08/07 00:22:43;;;;;;;6.90;4.80;;;;;;;12.59;95.50;102407.66;172085;28;1093;-68
2022/08/07 00:22:48;;;;;;;7.30;5.00;;;;;;;12.60;95.12;102409.38;172015;28;864;-67
2022/08/07 00:22:53;;;;;;;8.52;5.10;;;;;;;12.60;95.19;102409.38;172106;28;1041;-67
2022/08/07 00:22:59;;;;;;;8.90;5.00;;;;;;;12.59;94.88;102416.38;172107;28;1038;-68
2022/08/07 00:23:05;;;;;;;9.17;5.00;;;;;;;12.58;95.16;102406.78;171360;28;1513;-67
2022/08/07 00:23:11;;;;;;;8.03;4.90;;;;;;;12.58;95.34;102413.78;170676;29;1629;-67
2022/08/07 00:23:17;;;;;;;7.13;4.85;;;;;;;12.59;95.22;102412.91;170041;29;1038;-68
2022/08/07 00:23:23;;;;;;;6.20;4.63;;;;;;;12.58;95.05;102405.94;170142;29;1199;-67
2022/08/07 00:23:31;;;;;;;6.18;4.60;;;;;;;12.59;95.24;102407.66;170085;29;1306;-67
2022/08/07 00:23:39;;;;;;;5.40;4.50;;;;;;;12.60;95.33;102409.38;170107;29;1039;-68
2022/08/07 00:23:44;;;;;;;5.42;4.57;;;;;;;12.60;95.29;102415.47;170697;28;1145;-67
2022/08/07 00:23:50;;;;;;;5.33;4.60;;;;;;;12.61;95.49;102416.31;170809;29;951;-68
2022/08/07 00:23:55;;;;;;;5.37;4.83;;;;;;;12.62;95.10;102408.44;170783;29;832;-68
2022/08/07 00:24:00;;;;;;;5.65;4.90;;;;;;;12.62;94.74;102407.56;170761;29;1023;-67
2022/08/07 00:24:06;;;;;;;5.70;4.90;;;;;;;12.62;94.95;102412.81;170770;29;1023;-67
2022/08/07 00:24:11;;;;;;;6.22;5.00;;;;;;;12.61;94.77;102411.97;170714;28;1030;-68
2022/08/07 00:24:17;;;;;;;6.43;5.00;;;;;;;12.62;94.89;102408.44;170018;29;1374;-67
2022/08/07 00:24:22;;;;;;;6.77;5.00;;;;;;;12.62;94.66;102408.44;170128;29;979;-68
2022/08/07 00:24:27;;;;;;;6.50;4.82;;;;;;;12.62;94.51;102407.56;170140;29;1079;-67
2022/08/07 00:24:33;;;;;;;6.83;4.97;;;;;;;12.64;95.05;102415.38;170138;29;860;-67
2022/08/07 00:24:38;;;;;;;6.43;4.90;;;;;;;12.64;95.20;102410.16;170697;28;1457;-68
2022/08/07 00:24:43;;;;;;;6.50;4.73;;;;;;;12.65;94.62;102411.84;170749;29;963;-68
2022/08/07 00:24:49;;;;;;;6.43;4.73;;;;;;;12.64;94.78;102411.00;170785;29;908;-67
2022/08/07 00:24:54;;;;;;;5.93;4.72;;;;;;;12.65;94.51;102406.63;170762;29;856;-67
2022/08/07 00:24:59;;;;;;;5.50;4.70;;;;;;;12.65;95.11;102407.50;170786;29;838;-68
2022/08/07 00:25:07;;;;;;;6.13;4.60;;;;;;;12.66;94.85;102413.59;170787;29;1246;-67
2022/08/07 00:25:13;;;;;;;5.92;4.62;;;;;;;12.65;94.62;102404.00;171480;28;1006;-68
2022/08/07 00:25:18;;;;;;;5.47;4.70;;;;;;;12.65;94.38;102411.84;171372;28;950;-68
2022/08/07 00:25:23;;;;;;;5.57;4.73;;;;;;;12.64;94.75;102412.75;171471;28;1176;-68
2022/08/07 00:25:29;;;;;;;5.50;4.70;;;;;;;12.62;94.74;102403.19;171394;28;977;-68
2022/08/07 00:25:35;;;;;;;5.10;4.60;;;;;;;12.60;95.69;102409.38;170655;29;1767;-67
2022/08/07 00:25:41;;;;;;;5.20;4.70;;;;;;;12.57;95.81;102414.69;170798;29;1261;-68
2022/08/07 00:25:46;;;;;;;5.13;4.63;;;;;;;12.55;95.95;102406.88;170725;29;1022;-67
2022/08/07 00:25:52;;;;;;;5.22;4.72;;;;;;;12.56;95.59;102407.75;170820;29;1046;-68
2022/08/07 00:26:00;;;;;;;5.45;4.95;;;;;;;12.57;95.29;102407.69;170720;29;832;-67
2022/08/07 00:26:08;;;;;;;5.50;5.00;;;;;;;12.57;95.62;102410.31;170782;29;1070;-67
2022/08/07 00:26:13;;;;;;;5.46;4.93;;;;;;;12.58;95.40;102409.41;170757;28;2697;-68
2022/08/07 00:26:19;;;;;;;6.03;5.13;;;;;;;12.58;95.19;102411.16;171470;28;1062;-68
2022/08/07 00:26:24;;;;;;;6.47;4.82;;;;;;;12.57;95.30;102415.56;171436;28;935;-68
2022/08/07 00:26:30;;;;;;;6.27;4.70;;;;;;;12.58;95.45;102412.03;171445;28;947;-68
2022/08/07 00:26:35;;;;;;;6.30;4.72;;;;;;;12.58;95.06;102406.78;171431;28;1077;-68
2022/08/07 00:26:40;;;;;;;6.80;4.87;;;;;;;12.58;94.79;102412.03;171420;28;1081;-67
2022/08/07 00:26:46;;;;;;;6.73;4.80;;;;;;;12.58;94.95;102404.19;171442;28;849;-67
2022/08/07 00:26:51;;;;;;;6.28;4.80;;;;;;;12.58;95.20;102406.78;171499;28;1196;-67
2022/08/07 00:26:56;;;;;;;6.00;4.80;;;;;;;12.60;95.52;102409.38;171353;28;1353;-68
2022/08/07 00:27:02;;;;;;;6.67;4.77;;;;;;;12.60;95.42;102410.22;171409;28;1061;-68
2022/08/07 00:27:08;;;;;;;7.05;4.82;;;;;;;12.60;95.12;102412.00;171426;28;1086;-67
2022/08/07 00:27:13;;;;;;;6.78;4.90;;;;;;;12.61;95.09;102408.47;171430;28;1093;-67
2022/08/07 00:27:18;;;;;;;6.83;4.97;;;;;;;12.61;95.02;102414.56;171915;28;983;-68
2022/08/07 00:27:24;;;;;;;6.87;5.17;;;;;;;12.62;94.94;102408.44;172171;28;844;-67
2022/08/07 00:27:29;;;;;;;6.70;5.20;;;;;;;12.62;95.22;102408.44;171352;28;1414;-68
2022/08/07 00:27:35;;;;;;;6.40;5.23;;;;;;;12.64;95.11;102407.53;171371;28;943;-67
2022/08/07 00:27:40;;;;;;;6.07;5.05;;;;;;;12.62;94.85;102413.66;171313;28;1406;-68
2022/08/07 00:27:45;;;;;;;5.70;4.90;;;;;;;12.62;94.84;102408.44;171417;28;750;-67